CheckWX is a tool to help pilots better visualize weather data.  It is not intended as a substitute for an official pre-flight weather briefing.

07:45:50 UTC

PTPN TAF
Pohnpei International Airport
Pohnpei Island, Federated States of Micronesia
PTPN 260521Z 2606/2706 06011KT P6SM VCSH SCT018 BKN140 TEMPO 2606/2610 06011G20KT BKN016 FM261000 06011G20KT P6SM VCSH SCT018 BKN140 TEMPO 2610/2614 06011G20KT 5SM -SHRA BKN016

Jan-26@
06:00 UTC

Jan-26 @ 06:00 UTC

Jan-26@
10:00 UTC

Jan-26 @ 10:00 UTC

PTPN 260521Z 2606/2706 06011KT P6SM VCSH SCT018 BKN140
Wind
  • 060° at 11 KTS
Cloud Levels
  • Scattered at 1,800' AGL
  • Broken at 14,000' AGL

Jan-26@
06:00 UTC

Jan-26 @ 06:00 UTC

Jan-26@
10:00 UTC

Jan-26 @ 10:00 UTC

TEMPO 2606/2610 06011G20KT BKN016

Temporary

Temporary Changes expected for less than half the time period

Wind
  • 060° at 11 KTS
  • {Gusting to 20 KTS
Cloud Levels
  • Broken at 1,600' AGL

Jan-26@
10:00 UTC

Jan-26 @ 10:00 UTC

Jan-26@
14:00 UTC

Jan-26 @ 14:00 UTC

TEMPO 2610/2614 06011G20KT 5SM -SHRA BKN016

Temporary

Temporary Changes expected for less than half the time period

Wind
  • 060° at 11 KTS
  • {Gusting to 20 KTS
Conditions
Light Rain
Cloud Levels
  • Broken at 1,600' AGL

Jan-26@
10:00 UTC

Jan-26 @ 10:00 UTC

Jan-27@
06:00 UTC

Jan-27 @ 06:00 UTC

FM261000 06011G20KT P6SM VCSH SCT018 BKN140

From

From Standard forecast or significant change

Wind
  • 060° at 11 KTS
  • {Gusting to 20 KTS
Cloud Levels
  • Scattered at 1,800' AGL
  • Broken at 14,000' AGL